sensor_id;sensor_type;location;lat;lon;timestamp;P1;durP1;ratioP1;P2;durP2;ratioP2
13303;SDS011;6720;51.958;4.540;2023-08-01T00:01:28;11.33;;;4.40;;
13303;SDS011;6720;51.958;4.540;2023-08-01T00:03:54;9.00;;;4.60;;
13303;SDS011;6720;51.958;4.540;2023-08-01T00:06:20;8.00;;;4.43;;
13303;SDS011;6720;51.958;4.540;2023-08-01T00:08:47;11.37;;;4.80;;
13303;SDS011;6720;51.958;4.540;2023-08-01T00:11:12;10.53;;;4.50;;
13303;SDS011;6720;51.958;4.540;2023-08-01T00:13:39;9.27;;;4.67;;
13303;SDS011;6720;51.958;4.540;2023-08-01T00:16:05;9.00;;;4.50;;
13303;SDS011;6720;51.958;4.540;2023-08-01T00:18:30;9.50;;;4.73;;
13303;SDS011;6720;51.958;4.540;2023-08-01T00:20:56;10.00;;;4.97;;
13303;SDS011;6720;51.958;4.540;2023-08-01T00:23:21;11.53;;;5.03;;
13303;SDS011;6720;51.958;4.540;2023-08-01T00:25:47;8.67;;;5.10;;
13303;SDS011;6720;51.958;4.540;2023-08-01T00:28:19;12.20;;;4.63;;
13303;SDS011;6720;51.958;4.540;2023-08-01T00:30:46;10.37;;;4.87;;
13303;SDS011;6720;51.958;4.540;2023-08-01T00:33:12;10.03;;;5.23;;
13303;SDS011;6720;51.958;4.540;2023-08-01T00:35:38;11.10;;;5.53;;
13303;SDS011;6720;51.958;4.540;2023-08-01T00:38:03;13.97;;;5.20;;
13303;SDS011;6720;51.958;4.540;2023-08-01T00:40:32;8.57;;;4.87;;
13303;SDS011;6720;51.958;4.540;2023-08-01T00:42:59;13.13;;;5.87;;
13303;SDS011;6720;51.958;4.540;2023-08-01T00:45:25;12.20;;;5.93;;
13303;SDS011;6720;51.958;4.540;2023-08-01T00:47:51;10.43;;;5.20;;
13303;SDS011;6720;51.958;4.540;2023-08-01T00:50:18;14.80;;;5.37;;
13303;SDS011;6720;51.958;4.540;2023-08-01T00:52:47;12.23;;;5.10;;
13303;SDS011;6720;51.958;4.540;2023-08-01T00:55:14;12.50;;;5.07;;
13303;SDS011;6720;51.958;4.540;2023-08-01T00:57:40;10.13;;;5.47;;
13303;SDS011;6720;51.958;4.540;2023-08-01T01:00:06;9.90;;;4.70;;
13303;SDS011;6720;51.958;4.540;2023-08-01T01:02:32;8.53;;;5.10;;
13303;SDS011;6720;51.958;4.540;2023-08-01T01:04:57;11.07;;;5.23;;
13303;SDS011;6720;51.958;4.540;2023-08-01T01:07:23;10.80;;;5.27;;
13303;SDS011;6720;51.958;4.540;2023-08-01T01:09:49;10.93;;;5.13;;
13303;SDS011;6720;51.958;4.540;2023-08-01T01:12:15;11.40;;;5.10;;
13303;SDS011;6720;51.958;4.540;2023-08-01T01:14:40;10.60;;;5.10;;
13303;SDS011;6720;51.958;4.540;2023-08-01T01:17:06;12.63;;;5.13;;
13303;SDS011;6720;51.958;4.540;2023-08-01T01:19:31;12.00;;;5.20;;
13303;SDS011;6720;51.958;4.540;2023-08-01T01:21:57;11.33;;;4.90;;
13303;SDS011;6720;51.958;4.540;2023-08-01T01:24:23;11.57;;;5.00;;
13303;SDS011;6720;51.958;4.540;2023-08-01T01:26:50;10.10;;;4.60;;
13303;SDS011;6720;51.958;4.540;2023-08-01T01:29:16;10.73;;;5.17;;
13303;SDS011;6720;51.958;4.540;2023-08-01T01:31:43;10.37;;;4.80;;
13303;SDS011;6720;51.958;4.540;2023-08-01T01:34:09;10.60;;;5.10;;
13303;SDS011;6720;51.958;4.540;2023-08-01T01:36:35;7.80;;;4.90;;
13303;SDS011;6720;51.958;4.540;2023-08-01T01:39:00;8.70;;;4.93;;
13303;SDS011;6720;51.958;4.540;2023-08-01T01:41:26;10.73;;;5.13;;
13303;SDS011;6720;51.958;4.540;2023-08-01T01:43:51;12.40;;;4.93;;
13303;SDS011;6720;51.958;4.540;2023-08-01T01:46:17;9.10;;;4.50;;
13303;SDS011;6720;51.958;4.540;2023-08-01T01:48:42;10.07;;;4.87;;
13303;SDS011;6720;51.958;4.540;2023-08-01T01:51:08;9.67;;;4.57;;
13303;SDS011;6720;51.958;4.540;2023-08-01T01:53:33;9.77;;;5.43;;
13303;SDS011;6720;51.958;4.540;2023-08-01T01:55:59;8.70;;;5.00;;
13303;SDS011;6720;51.958;4.540;2023-08-01T01:58:24;9.70;;;4.77;;
13303;SDS011;6720;51.958;4.540;2023-08-01T02:00:50;13.93;;;5.10;;
13303;SDS011;6720;51.958;4.540;2023-08-01T02:03:18;11.27;;;5.03;;
13303;SDS011;6720;51.958;4.540;2023-08-01T02:05:44;12.93;;;5.07;;
13303;SDS011;6720;51.958;4.540;2023-08-01T02:08:10;12.43;;;5.20;;
13303;SDS011;6720;51.958;4.540;2023-08-01T02:10:35;12.00;;;4.83;;
13303;SDS011;6720;51.958;4.540;2023-08-01T02:13:00;9.60;;;5.00;;
13303;SDS011;6720;51.958;4.540;2023-08-01T02:15:26;8.67;;;5.30;;
13303;SDS011;6720;51.958;4.540;2023-08-01T02:17:51;10.57;;;5.60;;
13303;SDS011;6720;51.958;4.540;2023-08-01T02:20:17;13.80;;;5.60;;
13303;SDS011;6720;51.958;4.540;2023-08-01T02:22:42;15.47;;;5.37;;
13303;SDS011;6720;51.958;4.540;2023-08-01T02:25:08;11.60;;;5.00;;
13303;SDS011;6720;51.958;4.540;2023-08-01T02:27:33;11.10;;;5.23;;
13303;SDS011;6720;51.958;4.540;2023-08-01T02:29:59;12.17;;;5.37;;
13303;SDS011;6720;51.958;4.540;2023-08-01T02:32:24;10.40;;;5.77;;
13303;SDS011;6720;51.958;4.540;2023-08-01T02:34:49;10.60;;;5.23;;
13303;SDS011;6720;51.958;4.540;2023-08-01T02:37:15;10.60;;;5.03;;
13303;SDS011;6720;51.958;4.540;2023-08-01T02:39:40;11.07;;;5.80;;
13303;SDS011;6720;51.958;4.540;2023-08-01T02:42:06;14.33;;;6.10;;
13303;SDS011;6720;51.958;4.540;2023-08-01T02:44:31;11.90;;;5.97;;
13303;SDS011;6720;51.958;4.540;2023-08-01T02:46:57;11.77;;;6.30;;
13303;SDS011;6720;51.958;4.540;2023-08-01T02:49:22;14.13;;;6.30;;
13303;SDS011;6720;51.958;4.540;2023-08-01T02:51:47;14.37;;;6.20;;
13303;SDS011;6720;51.958;4.540;2023-08-01T02:54:13;9.97;;;6.17;;
13303;SDS011;6720;51.958;4.540;2023-08-01T02:56:38;13.10;;;6.33;;
13303;SDS011;6720;51.958;4.540;2023-08-01T02:59:07;14.50;;;6.20;;
13303;SDS011;6720;51.958;4.540;2023-08-01T03:01:34;18.23;;;6.57;;
13303;SDS011;6720;51.958;4.540;2023-08-01T03:04:01;11.20;;;6.40;;
13303;SDS011;6720;51.958;4.540;2023-08-01T03:06:27;14.03;;;6.23;;
13303;SDS011;6720;51.958;4.540;2023-08-01T03:08:53;15.17;;;6.73;;
13303;SDS011;6720;51.958;4.540;2023-08-01T03:11:18;15.90;;;6.77;;
13303;SDS011;6720;51.958;4.540;2023-08-01T03:13:43;13.33;;;6.20;;
13303;SDS011;6720;51.958;4.540;2023-08-01T03:16:09;16.10;;;7.07;;
13303;SDS011;6720;51.958;4.540;2023-08-01T03:18:35;16.30;;;7.43;;
13303;SDS011;6720;51.958;4.540;2023-08-01T03:21:00;14.33;;;7.10;;
13303;SDS011;6720;51.958;4.540;2023-08-01T03:23:28;15.33;;;6.73;;
13303;SDS011;6720;51.958;4.540;2023-08-01T03:25:54;14.97;;;7.03;;
13303;SDS011;6720;51.958;4.540;2023-08-01T03:28:20;15.30;;;7.53;;
13303;SDS011;6720;51.958;4.540;2023-08-01T03:30:45;15.90;;;7.30;;
13303;SDS011;6720;51.958;4.540;2023-08-01T03:33:11;17.30;;;7.00;;
13303;SDS011;6720;51.958;4.540;2023-08-01T03:35:36;18.87;;;7.07;;
13303;SDS011;6720;51.958;4.540;2023-08-01T03:38:01;15.03;;;7.70;;
13303;SDS011;6720;51.958;4.540;2023-08-01T03:40:27;14.67;;;7.10;;
13303;SDS011;6720;51.958;4.540;2023-08-01T03:42:53;14.13;;;7.03;;
13303;SDS011;6720;51.958;4.540;2023-08-01T03:45:18;15.57;;;7.17;;
13303;SDS011;6720;51.958;4.540;2023-08-01T03:47:43;16.10;;;7.67;;
13303;SDS011;6720;51.958;4.540;2023-08-01T03:50:09;15.67;;;7.37;;
13303;SDS011;6720;51.958;4.540;2023-08-01T03:52:35;14.97;;;7.30;;
13303;SDS011;6720;51.958;4.540;2023-08-01T03:55:00;12.07;;;5.93;;
13303;SDS011;6720;51.958;4.540;2023-08-01T03:57:26;15.60;;;6.80;;
13303;SDS011;6720;51.958;4.540;2023-08-01T03:59:52;18.00;;;7.27;;
13303;SDS011;6720;51.958;4.540;2023-08-01T04:02:17;14.23;;;6.87;;
13303;SDS011;6720;51.958;4.540;2023-08-01T04:04:43;18.17;;;6.40;;
13303;SDS011;6720;51.958;4.540;2023-08-01T04:07:09;15.17;;;6.53;;
13303;SDS011;6720;51.958;4.540;2023-08-01T04:09:34;11.20;;;6.03;;
13303;SDS011;6720;51.958;4.540;2023-08-01T04:11:59;16.30;;;6.00;;
13303;SDS011;6720;51.958;4.540;2023-08-01T04:14:25;12.67;;;5.83;;
13303;SDS011;6720;51.958;4.540;2023-08-01T04:16:50;16.87;;;5.80;;
13303;SDS011;6720;51.958;4.540;2023-08-01T04:19:16;13.97;;;6.50;;
13303;SDS011;6720;51.958;4.540;2023-08-01T04:21:41;16.77;;;5.70;;
13303;SDS011;6720;51.958;4.540;2023-08-01T04:24:06;14.37;;;6.00;;
13303;SDS011;6720;51.958;4.540;2023-08-01T04:26:32;10.50;;;5.83;;
13303;SDS011;6720;51.958;4.540;2023-08-01T04:28:57;10.83;;;5.37;;
13303;SDS011;6720;51.958;4.540;2023-08-01T04:31:23;15.63;;;5.83;;
13303;SDS011;6720;51.958;4.540;2023-08-01T04:33:48;13.87;;;6.23;;
13303;SDS011;6720;51.958;4.540;2023-08-01T04:36:13;12.97;;;5.87;;
13303;SDS011;6720;51.958;4.540;2023-08-01T04:38:39;9.13;;;4.80;;
13303;SDS011;6720;51.958;4.540;2023-08-01T04:41:04;8.17;;;5.27;;
13303;SDS011;6720;51.958;4.540;2023-08-01T04:43:30;11.43;;;5.73;;
13303;SDS011;6720;51.958;4.540;2023-08-01T04:45:55;10.50;;;5.13;;
13303;SDS011;6720;51.958;4.540;2023-08-01T04:48:21;12.93;;;5.47;;
13303;SDS011;6720;51.958;4.540;2023-08-01T04:50:46;12.07;;;5.50;;
13303;SDS011;6720;51.958;4.540;2023-08-01T04:53:12;13.83;;;5.00;;
13303;SDS011;6720;51.958;4.540;2023-08-01T04:55:37;9.63;;;5.07;;
13303;SDS011;6720;51.958;4.540;2023-08-01T04:58:02;12.43;;;5.47;;
13303;SDS011;6720;51.958;4.540;2023-08-01T05:00:28;16.40;;;5.67;;
13303;SDS011;6720;51.958;4.540;2023-08-01T05:02:56;11.20;;;5.57;;
13303;SDS011;6720;51.958;4.540;2023-08-01T05:05:22;14.63;;;5.57;;
13303;SDS011;6720;51.958;4.540;2023-08-01T05:07:47;14.00;;;5.53;;
13303;SDS011;6720;51.958;4.540;2023-08-01T05:10:12;10.63;;;5.53;;
13303;SDS011;6720;51.958;4.540;2023-08-01T05:12:38;13.07;;;5.73;;
13303;SDS011;6720;51.958;4.540;2023-08-01T05:15:03;10.87;;;4.93;;
13303;SDS011;6720;51.958;4.540;2023-08-01T05:17:29;10.67;;;5.30;;
13303;SDS011;6720;51.958;4.540;2023-08-01T05:19:55;7.90;;;4.60;;
13303;SDS011;6720;51.958;4.540;2023-08-01T05:22:20;11.67;;;5.07;;
13303;SDS011;6720;51.958;4.540;2023-08-01T05:24:46;13.63;;;5.47;;
13303;SDS011;6720;51.958;4.540;2023-08-01T05:27:11;11.80;;;5.03;;
13303;SDS011;6720;51.958;4.540;2023-08-01T05:29:37;11.43;;;5.03;;
13303;SDS011;6720;51.958;4.540;2023-08-01T05:32:02;9.30;;;4.83;;
13303;SDS011;6720;51.958;4.540;2023-08-01T05:34:28;8.67;;;4.97;;
13303;SDS011;6720;51.958;4.540;2023-08-01T05:36:53;11.70;;;5.00;;
13303;SDS011;6720;51.958;4.540;2023-08-01T05:39:19;7.03;;;4.27;;
13303;SDS011;6720;51.958;4.540;2023-08-01T05:41:44;11.90;;;5.00;;
13303;SDS011;6720;51.958;4.540;2023-08-01T05:44:09;10.60;;;5.03;;
13303;SDS011;6720;51.958;4.540;2023-08-01T05:46:35;12.13;;;4.90;;
13303;SDS011;6720;51.958;4.540;2023-08-01T05:49:00;8.37;;;4.33;;
13303;SDS011;6720;51.958;4.540;2023-08-01T05:51:26;9.10;;;4.90;;
13303;SDS011;6720;51.958;4.540;2023-08-01T05:53:51;9.67;;;4.70;;
13303;SDS011;6720;51.958;4.540;2023-08-01T05:56:17;9.93;;;4.70;;
13303;SDS011;6720;51.958;4.540;2023-08-01T05:58:42;8.93;;;4.17;;
13303;SDS011;6720;51.958;4.540;2023-08-01T06:01:09;11.20;;;5.20;;
13303;SDS011;6720;51.958;4.540;2023-08-01T06:03:37;7.60;;;4.70;;
13303;SDS011;6720;51.958;4.540;2023-08-01T06:06:02;10.60;;;4.77;;
13303;SDS011;6720;51.958;4.540;2023-08-01T06:08:28;10.87;;;5.13;;
13303;SDS011;6720;51.958;4.540;2023-08-01T06:10:53;11.30;;;4.90;;
13303;SDS011;6720;51.958;4.540;2023-08-01T06:13:19;11.97;;;4.57;;
13303;SDS011;6720;51.958;4.540;2023-08-01T06:15:44;9.93;;;4.23;;
13303;SDS011;6720;51.958;4.540;2023-08-01T06:18:10;8.63;;;4.50;;
13303;SDS011;6720;51.958;4.540;2023-08-01T06:20:36;10.43;;;4.40;;
13303;SDS011;6720;51.958;4.540;2023-08-01T06:23:02;8.13;;;4.23;;
13303;SDS011;6720;51.958;4.540;2023-08-01T06:25:27;7.57;;;4.07;;
13303;SDS011;6720;51.958;4.540;2023-08-01T06:27:53;13.70;;;4.87;;
13303;SDS011;6720;51.958;4.540;2023-08-01T06:30:18;11.57;;;4.80;;
13303;SDS011;6720;51.958;4.540;2023-08-01T06:32:44;7.53;;;4.37;;
13303;SDS011;6720;51.958;4.540;2023-08-01T06:35:09;11.70;;;4.63;;
13303;SDS011;6720;51.958;4.540;2023-08-01T06:37:34;10.27;;;4.93;;
13303;SDS011;6720;51.958;4.540;2023-08-01T06:40:00;8.83;;;4.53;;
13303;SDS011;6720;51.958;4.540;2023-08-01T06:42:26;11.60;;;4.80;;
13303;SDS011;6720;51.958;4.540;2023-08-01T06:44:52;9.00;;;4.30;;
13303;SDS011;6720;51.958;4.540;2023-08-01T06:47:17;10.03;;;4.60;;
13303;SDS011;6720;51.958;4.540;2023-08-01T06:49:43;11.83;;;5.50;;
13303;SDS011;6720;51.958;4.540;2023-08-01T06:52:08;11.23;;;4.87;;
13303;SDS011;6720;51.958;4.540;2023-08-01T06:54:34;11.33;;;5.40;;
13303;SDS011;6720;51.958;4.540;2023-08-01T06:56:59;11.27;;;5.10;;
13303;SDS011;6720;51.958;4.540;2023-08-01T06:59:25;11.80;;;5.00;;
13303;SDS011;6720;51.958;4.540;2023-08-01T07:01:51;9.70;;;4.83;;
13303;SDS011;6720;51.958;4.540;2023-08-01T07:04:16;11.37;;;4.90;;
13303;SDS011;6720;51.958;4.540;2023-08-01T07:06:42;11.70;;;5.33;;
13303;SDS011;6720;51.958;4.540;2023-08-01T07:09:07;8.70;;;4.80;;
13303;SDS011;6720;51.958;4.540;2023-08-01T07:11:33;8.67;;;3.97;;
13303;SDS011;6720;51.958;4.540;2023-08-01T07:13:58;12.47;;;4.97;;
13303;SDS011;6720;51.958;4.540;2023-08-01T07:16:24;7.03;;;4.10;;
13303;SDS011;6720;51.958;4.540;2023-08-01T07:18:49;9.77;;;4.70;;
13303;SDS011;6720;51.958;4.540;2023-08-01T07:21:16;10.77;;;4.53;;
13303;SDS011;6720;51.958;4.540;2023-08-01T07:23:41;9.87;;;4.17;;
13303;SDS011;6720;51.958;4.540;2023-08-01T07:26:07;9.30;;;4.57;;
13303;SDS011;6720;51.958;4.540;2023-08-01T07:28:33;7.80;;;4.40;;
13303;SDS011;6720;51.958;4.540;2023-08-01T07:31:07;10.17;;;3.73;;
13303;SDS011;6720;51.958;4.540;2023-08-01T07:33:33;7.37;;;3.60;;
13303;SDS011;6720;51.958;4.540;2023-08-01T07:35:59;9.23;;;3.67;;
13303;SDS011;6720;51.958;4.540;2023-08-01T07:38:25;9.40;;;3.80;;
13303;SDS011;6720;51.958;4.540;2023-08-01T07:40:52;10.23;;;3.90;;
13303;SDS011;6720;51.958;4.540;2023-08-01T07:43:17;6.63;;;3.60;;
13303;SDS011;6720;51.958;4.540;2023-08-01T07:45:44;6.07;;;3.60;;
13303;SDS011;6720;51.958;4.540;2023-08-01T07:48:09;10.30;;;3.63;;
13303;SDS011;6720;51.958;4.540;2023-08-01T07:50:35;8.60;;;3.77;;
13303;SDS011;6720;51.958;4.540;2023-08-01T07:53:00;8.63;;;3.77;;
13303;SDS011;6720;51.958;4.540;2023-08-01T07:55:26;7.90;;;3.70;;
13303;SDS011;6720;51.958;4.540;2023-08-01T07:57:51;11.30;;;4.17;;
13303;SDS011;6720;51.958;4.540;2023-08-01T08:00:16;9.57;;;3.93;;
13303;SDS011;6720;51.958;4.540;2023-08-01T08:02:42;7.90;;;3.80;;
13303;SDS011;6720;51.958;4.540;2023-08-01T08:05:10;9.97;;;4.10;;
13303;SDS011;6720;51.958;4.540;2023-08-01T08:07:36;10.43;;;4.10;;
13303;SDS011;6720;51.958;4.540;2023-08-01T08:10:02;7.87;;;3.70;;
13303;SDS011;6720;51.958;4.540;2023-08-01T08:12:28;8.30;;;3.77;;
13303;SDS011;6720;51.958;4.540;2023-08-01T08:14:54;6.37;;;3.90;;
13303;SDS011;6720;51.958;4.540;2023-08-01T08:17:19;7.57;;;3.90;;
13303;SDS011;6720;51.958;4.540;2023-08-01T08:19:45;7.90;;;4.00;;
13303;SDS011;6720;51.958;4.540;2023-08-01T08:22:10;7.23;;;3.83;;
13303;SDS011;6720;51.958;4.540;2023-08-01T08:24:36;10.97;;;3.90;;
13303;SDS011;6720;51.958;4.540;2023-08-01T08:27:01;10.13;;;3.70;;
13303;SDS011;6720;51.958;4.540;2023-08-01T08:29:27;11.53;;;4.17;;
13303;SDS011;6720;51.958;4.540;2023-08-01T08:31:52;6.63;;;3.60;;
13303;SDS011;6720;51.958;4.540;2023-08-01T08:34:18;7.97;;;3.57;;
13303;SDS011;6720;51.958;4.540;2023-08-01T08:36:43;10.30;;;4.73;;
13303;SDS011;6720;51.958;4.540;2023-08-01T08:39:09;9.30;;;4.00;;
13303;SDS011;6720;51.958;4.540;2023-08-01T08:41:38;10.33;;;3.90;;
13303;SDS011;6720;51.958;4.540;2023-08-01T08:44:07;8.47;;;4.13;;
13303;SDS011;6720;51.958;4.540;2023-08-01T08:46:35;11.73;;;4.50;;
13303;SDS011;6720;51.958;4.540;2023-08-01T08:49:08;10.50;;;4.47;;
13303;SDS011;6720;51.958;4.540;2023-08-01T08:51:36;9.73;;;4.40;;
13303;SDS011;6720;51.958;4.540;2023-08-01T08:54:04;6.97;;;4.10;;
13303;SDS011;6720;51.958;4.540;2023-08-01T08:56:31;10.80;;;4.37;;
13303;SDS011;6720;51.958;4.540;2023-08-01T08:58:57;8.10;;;4.03;;
13303;SDS011;6720;51.958;4.540;2023-08-01T09:01:24;7.57;;;4.10;;
13303;SDS011;6720;51.958;4.540;2023-08-01T09:03:49;7.83;;;3.67;;
13303;SDS011;6720;51.958;4.540;2023-08-01T09:06:15;10.13;;;4.60;;
13303;SDS011;6720;51.958;4.540;2023-08-01T09:08:52;8.90;;;4.00;;
13303;SDS011;6720;51.958;4.540;2023-08-01T09:11:47;8.97;;;4.03;;
13303;SDS011;6720;51.958;4.540;2023-08-01T09:14:14;7.43;;;3.80;;
13303;SDS011;6720;51.958;4.540;2023-08-01T09:16:40;7.97;;;3.83;;
13303;SDS011;6720;51.958;4.540;2023-08-01T09:19:06;10.27;;;3.80;;
13303;SDS011;6720;51.958;4.540;2023-08-01T09:21:33;8.97;;;4.00;;
13303;SDS011;6720;51.958;4.540;2023-08-01T09:24:12;5.93;;;3.73;;
13303;SDS011;6720;51.958;4.540;2023-08-01T09:26:39;8.27;;;3.90;;
13303;SDS011;6720;51.958;4.540;2023-08-01T09:29:05;8.40;;;4.00;;
13303;SDS011;6720;51.958;4.540;2023-08-01T09:31:32;7.53;;;3.70;;
13303;SDS011;6720;51.958;4.540;2023-08-01T09:33:59;8.80;;;3.87;;
13303;SDS011;6720;51.958;4.540;2023-08-01T09:36:25;9.87;;;3.73;;
13303;SDS011;6720;51.958;4.540;2023-08-01T09:38:50;11.80;;;4.37;;
13303;SDS011;6720;51.958;4.540;2023-08-01T09:41:16;11.40;;;4.43;;
13303;SDS011;6720;51.958;4.540;2023-08-01T09:43:43;12.10;;;4.27;;
13303;SDS011;6720;51.958;4.540;2023-08-01T09:46:11;5.80;;;3.43;;
13303;SDS011;6720;51.958;4.540;2023-08-01T09:48:37;5.97;;;3.53;;
13303;SDS011;6720;51.958;4.540;2023-08-01T09:51:07;10.80;;;4.00;;
13303;SDS011;6720;51.958;4.540;2023-08-01T09:53:33;10.97;;;3.60;;
13303;SDS011;6720;51.958;4.540;2023-08-01T09:56:00;6.37;;;3.60;;
13303;SDS011;6720;51.958;4.540;2023-08-01T09:58:33;7.50;;;3.40;;
13303;SDS011;6720;51.958;4.540;2023-08-01T10:00:59;6.67;;;3.40;;
13303;SDS011;6720;51.958;4.540;2023-08-01T10:03:27;7.80;;;3.40;;
13303;SDS011;6720;51.958;4.540;2023-08-01T10:05:53;8.67;;;3.70;;
13303;SDS011;6720;51.958;4.540;2023-08-01T10:08:20;7.93;;;3.40;;
13303;SDS011;6720;51.958;4.540;2023-08-01T10:10:47;8.63;;;3.40;;
13303;SDS011;6720;51.958;4.540;2023-08-01T10:13:13;7.07;;;3.00;;
13303;SDS011;6720;51.958;4.540;2023-08-01T10:15:39;7.97;;;3.07;;
13303;SDS011;6720;51.958;4.540;2023-08-01T10:18:05;8.27;;;3.30;;
13303;SDS011;6720;51.958;4.540;2023-08-01T10:20:30;7.80;;;3.33;;
13303;SDS011;6720;51.958;4.540;2023-08-01T10:22:57;6.27;;;3.33;;
13303;SDS011;6720;51.958;4.540;2023-08-01T10:25:23;9.50;;;3.47;;
13303;SDS011;6720;51.958;4.540;2023-08-01T10:27:59;7.17;;;3.70;;
13303;SDS011;6720;51.958;4.540;2023-08-01T10:30:25;7.43;;;3.27;;
13303;SDS011;6720;51.958;4.540;2023-08-01T10:32:54;7.23;;;3.47;;
13303;SDS011;6720;51.958;4.540;2023-08-01T10:35:31;6.60;;;3.50;;
13303;SDS011;6720;51.958;4.540;2023-08-01T10:38:05;8.47;;;2.90;;
13303;SDS011;6720;51.958;4.540;2023-08-01T10:40:33;9.20;;;3.40;;
13303;SDS011;6720;51.958;4.540;2023-08-01T10:43:02;10.70;;;3.23;;
13303;SDS011;6720;51.958;4.540;2023-08-01T10:45:28;7.23;;;3.43;;
13303;SDS011;6720;51.958;4.540;2023-08-01T10:48:05;9.93;;;3.47;;
13303;SDS011;6720;51.958;4.540;2023-08-01T10:50:31;7.90;;;3.23;;
13303;SDS011;6720;51.958;4.540;2023-08-01T10:53:07;7.30;;;3.03;;
13303;SDS011;6720;51.958;4.540;2023-08-01T10:55:43;10.47;;;3.57;;
13303;SDS011;6720;51.958;4.540;2023-08-01T10:58:11;8.83;;;4.30;;
13303;SDS011;6720;51.958;4.540;2023-08-01T11:00:37;7.70;;;3.73;;
13303;SDS011;6720;51.958;4.540;2023-08-01T11:03:03;7.83;;;3.20;;
13303;SDS011;6720;51.958;4.540;2023-08-01T11:05:29;7.63;;;2.97;;
13303;SDS011;6720;51.958;4.540;2023-08-01T11:07:59;11.17;;;3.90;;
13303;SDS011;6720;51.958;4.540;2023-08-01T11:10:26;6.60;;;3.40;;
13303;SDS011;6720;51.958;4.540;2023-08-01T11:12:53;10.53;;;3.40;;
13303;SDS011;6720;51.958;4.540;2023-08-01T11:15:19;9.33;;;3.90;;
13303;SDS011;6720;51.958;4.540;2023-08-01T11:17:48;12.20;;;4.07;;
13303;SDS011;6720;51.958;4.540;2023-08-01T11:20:16;11.47;;;4.03;;
13303;SDS011;6720;51.958;4.540;2023-08-01T11:22:56;10.27;;;3.93;;
13303;SDS011;6720;51.958;4.540;2023-08-01T11:25:35;11.97;;;3.90;;
13303;SDS011;6720;51.958;4.540;2023-08-01T11:28:15;10.33;;;3.40;;
13303;SDS011;6720;51.958;4.540;2023-08-01T11:30:42;10.67;;;3.77;;
13303;SDS011;6720;51.958;4.540;2023-08-01T11:33:18;9.30;;;3.60;;
13303;SDS011;6720;51.958;4.540;2023-08-01T11:35:46;9.33;;;3.20;;
13303;SDS011;6720;51.958;4.540;2023-08-01T11:38:15;8.70;;;3.50;;
13303;SDS011;6720;51.958;4.540;2023-08-01T11:40:41;7.03;;;3.00;;
13303;SDS011;6720;51.958;4.540;2023-08-01T11:43:07;6.67;;;2.93;;
13303;SDS011;6720;51.958;4.540;2023-08-01T11:45:33;11.13;;;3.33;;
13303;SDS011;6720;51.958;4.540;2023-08-01T11:47:58;7.90;;;3.57;;
13303;SDS011;6720;51.958;4.540;2023-08-01T11:50:24;6.50;;;3.27;;
13303;SDS011;6720;51.958;4.540;2023-08-01T11:52:51;8.63;;;3.33;;
13303;SDS011;6720;51.958;4.540;2023-08-01T11:55:25;7.97;;;3.27;;
13303;SDS011;6720;51.958;4.540;2023-08-01T11:57:55;7.47;;;3.17;;
13303;SDS011;6720;51.958;4.540;2023-08-01T12:00:22;5.90;;;2.97;;
13303;SDS011;6720;51.958;4.540;2023-08-01T12:03:03;5.27;;;3.07;;
13303;SDS011;6720;51.958;4.540;2023-08-01T12:05:32;9.80;;;3.00;;
13303;SDS011;6720;51.958;4.540;2023-08-01T12:08:11;6.67;;;3.00;;
13303;SDS011;6720;51.958;4.540;2023-08-01T12:10:41;11.03;;;2.87;;
13303;SDS011;6720;51.958;4.540;2023-08-01T12:13:23;7.97;;;2.83;;
13303;SDS011;6720;51.958;4.540;2023-08-01T12:15:50;7.23;;;3.37;;
13303;SDS011;6720;51.958;4.540;2023-08-01T12:18:23;6.10;;;2.60;;
13303;SDS011;6720;51.958;4.540;2023-08-01T12:20:50;8.27;;;3.03;;
13303;SDS011;6720;51.958;4.540;2023-08-01T12:23:16;7.93;;;2.70;;
13303;SDS011;6720;51.958;4.540;2023-08-01T12:25:41;5.93;;;3.00;;
13303;SDS011;6720;51.958;4.540;2023-08-01T12:28:07;9.37;;;3.00;;
13303;SDS011;6720;51.958;4.540;2023-08-01T12:30:32;6.80;;;2.63;;
13303;SDS011;6720;51.958;4.540;2023-08-01T12:32:58;5.33;;;2.87;;
13303;SDS011;6720;51.958;4.540;2023-08-01T12:35:23;6.57;;;2.53;;
13303;SDS011;6720;51.958;4.540;2023-08-01T12:37:49;8.10;;;3.10;;
13303;SDS011;6720;51.958;4.540;2023-08-01T12:40:15;7.40;;;2.73;;
13303;SDS011;6720;51.958;4.540;2023-08-01T12:42:41;6.03;;;2.90;;
13303;SDS011;6720;51.958;4.540;2023-08-01T12:45:06;6.90;;;3.13;;
13303;SDS011;6720;51.958;4.540;2023-08-01T12:47:32;7.30;;;2.80;;
13303;SDS011;6720;51.958;4.540;2023-08-01T12:49:57;10.43;;;3.00;;
13303;SDS011;6720;51.958;4.540;2023-08-01T12:52:23;6.00;;;2.97;;
13303;SDS011;6720;51.958;4.540;2023-08-01T12:54:49;6.23;;;2.70;;
13303;SDS011;6720;51.958;4.540;2023-08-01T12:57:15;6.17;;;2.80;;
13303;SDS011;6720;51.958;4.540;2023-08-01T12:59:40;8.13;;;3.00;;
13303;SDS011;6720;51.958;4.540;2023-08-01T13:02:06;6.20;;;2.90;;
13303;SDS011;6720;51.958;4.540;2023-08-01T13:04:33;8.00;;;2.87;;
13303;SDS011;6720;51.958;4.540;2023-08-01T13:06:59;6.83;;;3.53;;
13303;SDS011;6720;51.958;4.540;2023-08-01T13:09:25;5.97;;;2.80;;
13303;SDS011;6720;51.958;4.540;2023-08-01T13:11:50;8.53;;;3.20;;
13303;SDS011;6720;51.958;4.540;2023-08-01T13:14:16;7.33;;;2.90;;
13303;SDS011;6720;51.958;4.540;2023-08-01T13:16:41;7.03;;;3.00;;
13303;SDS011;6720;51.958;4.540;2023-08-01T13:19:07;7.50;;;2.70;;
13303;SDS011;6720;51.958;4.540;2023-08-01T13:21:32;6.83;;;2.80;;
13303;SDS011;6720;51.958;4.540;2023-08-01T13:23:59;7.53;;;3.03;;
13303;SDS011;6720;51.958;4.540;2023-08-01T13:26:29;9.30;;;2.90;;
13303;SDS011;6720;51.958;4.540;2023-08-01T13:28:58;7.87;;;3.03;;
13303;SDS011;6720;51.958;4.540;2023-08-01T13:31:24;9.17;;;3.20;;
13303;SDS011;6720;51.958;4.540;2023-08-01T13:33:50;8.50;;;3.20;;
13303;SDS011;6720;51.958;4.540;2023-08-01T13:36:19;6.37;;;2.80;;
13303;SDS011;6720;51.958;4.540;2023-08-01T13:38:44;9.83;;;3.47;;
13303;SDS011;6720;51.958;4.540;2023-08-01T13:41:09;7.60;;;3.00;;
13303;SDS011;6720;51.958;4.540;2023-08-01T13:43:35;5.50;;;2.80;;
13303;SDS011;6720;51.958;4.540;2023-08-01T13:46:09;7.93;;;3.30;;
13303;SDS011;6720;51.958;4.540;2023-08-01T13:48:38;5.43;;;2.60;;
13303;SDS011;6720;51.958;4.540;2023-08-01T13:51:03;5.77;;;2.80;;
13303;SDS011;6720;51.958;4.540;2023-08-01T13:53:29;7.97;;;2.97;;
13303;SDS011;6720;51.958;4.540;2023-08-01T13:55:54;6.73;;;2.70;;
13303;SDS011;6720;51.958;4.540;2023-08-01T13:58:20;5.97;;;2.83;;
13303;SDS011;6720;51.958;4.540;2023-08-01T14:00:46;8.10;;;3.00;;
13303;SDS011;6720;51.958;4.540;2023-08-01T14:03:11;9.03;;;2.80;;
13303;SDS011;6720;51.958;4.540;2023-08-01T14:05:36;7.70;;;3.10;;
13303;SDS011;6720;51.958;4.540;2023-08-01T14:08:02;5.23;;;2.93;;
13303;SDS011;6720;51.958;4.540;2023-08-01T14:10:27;4.57;;;2.60;;
13303;SDS011;6720;51.958;4.540;2023-08-01T14:12:53;9.03;;;3.10;;
13303;SDS011;6720;51.958;4.540;2023-08-01T14:15:18;7.13;;;2.83;;
13303;SDS011;6720;51.958;4.540;2023-08-01T14:17:45;7.07;;;2.73;;
13303;SDS011;6720;51.958;4.540;2023-08-01T14:20:10;7.30;;;2.70;;
13303;SDS011;6720;51.958;4.540;2023-08-01T14:22:36;7.47;;;2.70;;
13303;SDS011;6720;51.958;4.540;2023-08-01T14:25:01;5.03;;;2.70;;
13303;SDS011;6720;51.958;4.540;2023-08-01T14:27:27;6.03;;;2.80;;
13303;SDS011;6720;51.958;4.540;2023-08-01T14:29:52;5.63;;;2.63;;
13303;SDS011;6720;51.958;4.540;2023-08-01T14:32:18;8.87;;;3.13;;
13303;SDS011;6720;51.958;4.540;2023-08-01T14:34:44;7.00;;;2.73;;
13303;SDS011;6720;51.958;4.540;2023-08-01T14:37:10;7.07;;;3.17;;
13303;SDS011;6720;51.958;4.540;2023-08-01T14:39:35;4.80;;;2.70;;
13303;SDS011;6720;51.958;4.540;2023-08-01T14:42:01;8.10;;;2.70;;
13303;SDS011;6720;51.958;4.540;2023-08-01T14:44:26;6.60;;;2.50;;
13303;SDS011;6720;51.958;4.540;2023-08-01T14:46:51;5.30;;;2.73;;
13303;SDS011;6720;51.958;4.540;2023-08-01T14:49:19;6.50;;;2.87;;
13303;SDS011;6720;51.958;4.540;2023-08-01T14:51:46;6.70;;;2.40;;